Sparta, WI

11:41 PM CDT on April 18, 2015 (GMT -0500)
Viroqua | | Change Station
CLOSE
Current Station
Airport
Location: Viroqua,
Elevation: 1293 ft
Nearby Weather Stations

Elev 1293 ft 43.58 °N, 90.90 °W | Updated 26 minutes ago

Overcast
Overcast
54 °F
Feels Like 54 °F
N
21
Wind Variable Wind from East
Gusts 26 mph

Today
High -- | Low -- °F
--% Chance of Precip.
Yesterday
High -- | Low -- °F
Precip. -- in
6:15 AM 7:50 PM
New Moon, 0% visible
Pressure 29.93 in
Visibility 10.0 miles
Clouds Scattered Clouds 9500 ft
Dew Point 29 °F
Humidity 37%
Rainfall 0.00 in
Snow Depth Not available.
UV 0 out of 12
Pollen 10.90 out of 12
Air Quality Not available.
Flu Activity Local Activity
METAR KY51 190415Z AUTO 10018G23KT 10SM SCT095 12/M02 A2993 RMK AO1 T01241019

More Conditions Fewer Conditions

Pressure 29.93 in
Visibility 10.0 miles
Clouds Scattered Clouds 9500 ft
Dew Point 29 °F
Humidity 37%
Rainfall 0.00 in
Snow Depth Not available.
UV 0 out of 12
Pollen 10.90 out of 12
Air Quality Not available.
Flu Activity Local Activity
METAR KY51 190415Z AUTO 10018G23KT 10SM SCT095 12/M02 A2993 RMK AO1 T01241019

More Conditions Fewer Conditions

10-Day Weather Forecast

Almanac

Astronomy

Apr. 18, 2015 Rise Set
Actual Time
Civil Twilight
Nautical Twilight
Astronomical Twilight
Moon
Length of Visible Light
Length of Day
Tomorrow will be .
, % of the Moon is Illuminated

Today's Extremes

State Highs State Lows

Community

WunderPhotos

Upload Photos

1,814,723 photos uploaded!

WunderBlogs® & News

Nearby

Air Quality

  Air Quality AQ Index Pollutant
Not available.

Snow Depth

Station Depth Elevation

Earthquake Activity

City Distance Mag. Time & Date
Minimum magnitude displayed is 2.5.

Coastal Water Temperatures

Place Temperature

Stations

Nearby Weather Stations

Station Location Temp. Windchill Dew Point Humidity Wind Precip. Elev Updated Type